Time;durP1;ratioP1;P1;durP2;ratioP2;P2;SDS_P1;SDS_P2;PMS_P1;PMS_P2;Temp;Humidity;BMP_temperature;BMP_pressure;BME280_temperature;BME280_humidity;BME280_pressure;Samples;Min_cycle;Max_cycle;Signal;HPM_P1;HPM_P2
2022/06/10 00:01:11;;;;;;;5.30;1.75;;;20.00;80.30;;;;;;5062121;28;20044;-66
2022/06/10 00:03:37;;;;;;;6.35;1.73;;;19.90;80.40;;;;;;5057611;28;20043;-66
2022/06/10 00:06:05;;;;;;;7.72;1.80;;;19.90;80.60;;;;;;5070290;28;20021;-66
2022/06/10 00:08:37;;;;;;;8.57;2.05;;;19.80;80.50;;;;;;5073388;28;20475;-66
2022/06/10 00:11:06;;;;;;;11.75;1.90;;;19.80;80.10;;;;;;5068067;28;20035;-66
2022/06/10 00:13:33;;;;;;;6.15;1.70;;;19.80;80.00;;;;;;5073560;28;20046;-66
2022/06/10 00:16:00;;;;;;;10.15;1.85;;;19.80;80.00;;;;;;5073802;28;20021;-66
2022/06/10 00:18:28;;;;;;;5.60;1.67;;;19.70;80.00;;;;;;5060299;28;20074;-66
2022/06/10 00:20:54;;;;;;;8.93;2.17;;;19.70;80.00;;;;;;5073828;28;20502;-66
2022/06/10 00:23:23;;;;;;;7.40;1.80;;;19.60;80.00;;;;;;5067467;28;20362;-66
2022/06/10 00:25:49;;;;;;;5.78;1.63;;;19.60;80.20;;;;;;5067355;28;20032;-66
2022/06/10 00:28:15;;;;;;;3.47;1.73;;;19.60;80.40;;;;;;5073695;28;20029;-67
2022/06/10 00:30:42;;;;;;;6.90;1.70;;;19.50;80.60;;;;;;5074280;28;20029;-66
2022/06/10 00:33:07;;;;;;;12.55;1.95;;;19.50;80.60;;;;;;5066971;28;20384;-66
2022/06/10 00:35:34;;;;;;;9.35;1.77;;;19.50;80.80;;;;;;5074056;28;20036;-66
2022/06/10 00:38:06;;;;;;;9.88;1.65;;;19.40;80.70;;;;;;5074085;28;20036;-66
2022/06/10 00:40:39;;;;;;;4.65;1.50;;;19.40;80.90;;;;;;5062178;28;21004;-66
2022/06/10 00:43:06;;;;;;;5.53;1.60;;;19.40;81.40;;;;;;5071748;28;20162;-66
2022/06/10 00:45:53;;;;;;;10.80;1.88;;;19.30;81.60;;;;;;5068795;28;20385;-66
2022/06/10 00:48:26;;;;;;;5.80;1.73;;;19.30;81.50;;;;;;5061241;28;20029;-66
2022/06/10 00:50:53;;;;;;;8.25;1.55;;;19.20;81.40;;;;;;5064003;28;20116;-66
2022/06/10 00:53:23;;;;;;;6.00;1.98;;;19.20;81.50;;;;;;5070692;28;20033;-66
2022/06/10 00:55:52;;;;;;;5.03;1.65;;;19.20;81.50;;;;;;5057772;28;20029;-67
2022/06/10 00:58:31;;;;;;;5.55;1.63;;;19.10;81.40;;;;;;5071864;28;20032;-66
2022/06/10 01:00:58;;;;;;;7.13;1.80;;;19.10;81.30;;;;;;5066573;28;20106;-66
2022/06/10 01:03:24;;;;;;;11.18;1.70;;;19.10;81.20;;;;;;5060667;28;20051;-66
2022/06/10 01:05:50;;;;;;;6.93;1.75;;;19.00;81.00;;;;;;5073474;28;20020;-66
2022/06/10 01:08:19;;;;;;;9.20;1.80;;;19.00;81.10;;;;;;5069499;28;20036;-66
2022/06/10 01:11:29;;;;;;;7.72;1.88;;;19.00;81.70;;;;;;5062472;28;20087;-67
2022/06/10 01:14:26;;;;;;;8.55;1.70;;;19.00;81.10;;;;;;5032589;28;20517;-67
2022/06/10 01:16:55;;;;;;;8.05;1.70;;;19.00;81.10;;;;;;5056154;28;20035;-67
2022/06/10 01:19:48;;;;;;;6.05;1.80;;;18.90;81.20;;;;;;5064898;28;20040;-66
2022/06/10 01:22:42;;;;;;;10.35;2.20;;;18.90;81.40;;;;;;5057593;28;20085;-66
2022/06/10 01:25:29;;;;;;;10.75;2.05;;;18.80;81.40;;;;;;5071116;28;20036;-67
2022/06/10 01:28:06;;;;;;;7.35;1.83;;;18.80;81.50;;;;;;5068160;28;20044;-66
2022/06/10 01:31:14;;;;;;;5.75;1.92;;;18.70;81.60;;;;;;5059984;28;20050;-66
2022/06/10 01:33:51;;;;;;;7.70;1.90;;;18.70;81.80;;;;;;5069472;28;20442;-67
2022/06/10 01:36:38;;;;;;;8.60;2.10;;;18.70;82.00;;;;;;5054509;28;20111;-66
2022/06/10 01:39:12;;;;;;;15.30;2.20;;;18.60;82.20;;;;;;5059078;28;20054;-67
2022/06/10 01:41:41;;;;;;;;;;;18.50;82.30;;;;;;5053232;28;20567;-66
2022/06/10 01:44:38;;;;;;;8.25;2.35;;;18.40;82.70;;;;;;5063221;28;19916;-66
2022/06/10 01:47:04;;;;;;;8.23;1.90;;;18.40;82.60;;;;;;5061924;28;20392;-66
2022/06/10 01:49:35;;;;;;;5.10;1.77;;;18.30;82.70;;;;;;5059005;28;20032;-66
2022/06/10 01:52:37;;;;;;;5.07;1.60;;;18.30;82.80;;;;;;5072544;28;20529;-66
2022/06/10 01:55:25;;;;;;;4.65;1.73;;;18.30;83.00;;;;;;5048147;28;20041;-66
2022/06/10 01:57:56;;;;;;;10.27;2.33;;;18.20;83.00;;;;;;5060121;28;20468;-66
2022/06/10 02:00:30;;;;;;;7.47;1.65;;;18.20;83.10;;;;;;5067877;28;20027;-66
2022/06/10 02:03:01;;;;;;;6.97;1.67;;;18.10;83.20;;;;;;5069648;28;20040;-66
2022/06/10 02:05:31;;;;;;;6.95;1.73;;;18.10;83.30;;;;;;5065870;28;20087;-66
2022/06/10 02:08:03;;;;;;;6.05;2.10;;;18.10;83.40;;;;;;5060502;28;20037;-67
2022/06/10 02:10:39;;;;;;;6.03;2.55;;;18.10;83.40;;;;;;5065403;28;20039;-67
2022/06/10 02:13:13;;;;;;;6.05;1.80;;;18.10;83.50;;;;;;5068273;28;20493;-67
2022/06/10 02:15:44;;;;;;;15.88;2.00;;;18.00;83.50;;;;;;5066388;28;20750;-67
2022/06/10 02:18:18;;;;;;;9.00;1.80;;;18.00;83.60;;;;;;5069784;28;20071;-66
2022/06/10 02:20:49;;;;;;;3.45;1.58;;;17.90;83.60;;;;;;5068990;28;20036;-66
2022/06/10 02:23:21;;;;;;;4.38;1.50;;;18.00;83.60;;;;;;5069002;28;20036;-66
2022/06/10 02:25:51;;;;;;;10.68;1.95;;;17.90;83.60;;;;;;5066365;28;20492;-66
2022/06/10 02:28:25;;;;;;;7.93;1.95;;;17.80;83.70;;;;;;5066734;28;20043;-67
2022/06/10 02:31:01;;;;;;;4.35;1.55;;;17.80;83.60;;;;;;5070419;28;20051;-67
2022/06/10 02:33:27;;;;;;;5.60;1.60;;;17.80;83.60;;;;;;5068613;28;20067;-67
2022/06/10 02:36:06;;;;;;;8.40;2.05;;;17.80;83.60;;;;;;5068949;28;20060;-66
2022/06/10 02:38:58;;;;;;;7.95;2.30;;;17.70;83.60;;;;;;5069764;28;20449;-67
2022/06/10 02:41:38;;;;;;;12.90;3.50;;;17.70;83.70;;;;;;5068757;28;20539;-66
2022/06/10 02:44:22;;;;;;;5.38;1.90;;;17.70;83.70;;;;;;5067551;28;20067;-66
2022/06/10 02:47:11;;;;;;;6.38;1.90;;;17.60;83.80;;;;;;5068727;28;20025;-66
2022/06/10 02:49:37;;;;;;;13.93;2.90;;;17.60;83.70;;;;;;5070597;28;20190;-66
2022/06/10 02:52:04;;;;;;;7.63;2.20;;;17.60;83.70;;;;;;5070057;28;20115;-66
2022/06/10 02:54:33;;;;;;;7.32;1.65;;;17.60;83.70;;;;;;5070390;28;20032;-66
2022/06/10 02:57:13;;;;;;;13.15;1.88;;;17.50;83.60;;;;;;5070046;28;20078;-66
2022/06/10 03:02:42;;;;;;;8.48;1.80;;;17.50;83.50;;;;;;5060657;28;20052;-67
2022/06/10 03:05:35;;;;;;;9.48;2.30;;;17.50;83.50;;;;;;5060576;28;20052;-66
2022/06/10 03:08:49;;;;;;;7.78;2.30;;;17.50;83.40;;;;;;5069907;28;20499;-66
2022/06/10 03:11:38;;;;;;;9.23;2.05;;;17.50;84.00;;;;;;5047236;28;20036;-66
2022/06/10 03:14:09;;;;;;;5.22;1.70;;;17.40;83.40;;;;;;5069611;28;20480;-66
2022/06/10 03:17:03;;;;;;;3.70;1.67;;;17.40;83.40;;;;;;5067580;28;20107;-66
2022/06/10 03:19:33;;;;;;;10.57;2.20;;;17.40;83.60;;;;;;5067219;28;20508;-66
2022/06/10 03:22:32;;;;;;;8.27;2.05;;;17.40;83.60;;;;;;5070853;28;20045;-66
2022/06/10 03:25:15;;;;;;;7.15;2.03;;;17.40;83.80;;;;;;5067666;28;20120;-66
2022/06/10 03:27:50;;;;;;;5.95;2.05;;;17.40;83.80;;;;;;5067236;28;20123;-66
2022/06/10 03:30:20;;;;;;;9.82;2.45;;;17.30;83.90;;;;;;5063732;28;20397;-66
2022/06/10 03:32:46;;;;;;;9.32;2.10;;;17.30;84.00;;;;;;5064402;28;20040;-66
2022/06/10 03:35:33;;;;;;;10.07;2.38;;;17.20;84.00;;;;;;5070401;28;20020;-66
2022/06/10 03:38:03;;;;;;;10.65;2.25;;;17.20;84.10;;;;;;5066691;28;20107;-67
2022/06/10 03:40:30;;;;;;;10.38;2.42;;;17.20;84.10;;;;;;5061451;28;20029;-66
2022/06/10 03:43:02;;;;;;;8.80;2.00;;;17.10;84.10;;;;;;5063098;28;20090;-66
2022/06/10 03:45:37;;;;;;;16.13;2.43;;;17.10;84.30;;;;;;5070237;28;20041;-66
2022/06/10 03:48:06;;;;;;;4.88;1.83;;;17.10;84.50;;;;;;5068788;28;20108;-66
2022/06/10 03:50:37;;;;;;;8.02;2.22;;;17.10;84.50;;;;;;5067852;28;20032;-67
2022/06/10 03:53:04;;;;;;;11.18;2.35;;;17.10;84.60;;;;;;5068849;28;20035;-67
2022/06/10 03:55:30;;;;;;;10.00;2.10;;;17.10;84.60;;;;;;5061771;28;20353;-66
2022/06/10 03:57:55;;;;;;;4.35;1.65;;;17.00;84.60;;;;;;5073104;28;20033;-67
2022/06/10 04:00:27;;;;;;;8.85;2.72;;;17.00;84.60;;;;;;5069305;28;20025;-66
2022/06/10 04:02:54;;;;;;;6.80;2.22;;;17.00;84.80;;;;;;5066261;28;20082;-67
2022/06/10 04:05:20;;;;;;;7.10;2.10;;;17.00;84.80;;;;;;5072699;28;20032;-67
2022/06/10 04:07:46;;;;;;;8.55;2.05;;;17.00;84.80;;;;;;5067063;28;20105;-66
2022/06/10 04:10:15;;;;;;;11.18;2.17;;;17.00;85.00;;;;;;5066193;28;20416;-66
2022/06/10 04:12:41;;;;;;;7.60;2.20;;;16.90;85.00;;;;;;5074066;28;20400;-66
2022/06/10 04:15:08;;;;;;;7.72;1.77;;;16.90;85.10;;;;;;5063110;28;20086;-67
2022/06/10 04:17:34;;;;;;;7.70;2.05;;;16.90;85.00;;;;;;5074955;28;20395;-66
2022/06/10 04:20:00;;;;;;;10.98;2.38;;;16.90;85.10;;;;;;5073055;28;20033;-66
2022/06/10 04:22:26;;;;;;;13.87;2.20;;;16.90;85.10;;;;;;5064201;28;20033;-67
2022/06/10 04:24:53;;;;;;;5.82;2.08;;;16.80;85.80;;;;;;5069976;28;20037;-67
2022/06/10 04:27:19;;;;;;;10.40;2.35;;;16.80;85.20;;;;;;5070979;28;20021;-66
2022/06/10 04:29:44;;;;;;;10.55;2.15;;;16.80;85.20;;;;;;5068493;28;20548;-66
2022/06/10 04:32:10;;;;;;;5.63;2.13;;;16.80;85.50;;;;;;5074288;28;20021;-66
2022/06/10 04:34:36;;;;;;;9.70;3.05;;;16.70;85.40;;;;;;5073263;28;20392;-66
2022/06/10 04:37:03;;;;;;;12.43;2.13;;;16.70;85.60;;;;;;5065934;28;20032;-66
2022/06/10 04:39:32;;;;;;;5.82;2.22;;;16.70;85.50;;;;;;5074179;28;20032;-66
2022/06/10 04:41:58;;;;;;;6.18;1.58;;;16.70;85.60;;;;;;5072803;28;20036;-67
2022/06/10 04:44:23;;;;;;;7.95;2.22;;;16.70;85.60;;;;;;5061383;28;20068;-67
2022/06/10 04:46:50;;;;;;;6.80;2.03;;;16.70;85.70;;;;;;5072393;28;20040;-67
2022/06/10 04:49:16;;;;;;;7.57;2.00;;;16.70;85.80;;;;;;5068064;28;20031;-66
2022/06/10 04:51:41;;;;;;;13.02;2.45;;;16.70;85.90;;;;;;5067473;28;20025;-67
2022/06/10 04:54:08;;;;;;;8.07;2.08;;;16.60;85.90;;;;;;5073901;28;20074;-66
2022/06/10 04:56:34;;;;;;;12.95;2.83;;;16.70;86.00;;;;;;5073714;28;20029;-67
2022/06/10 04:59:00;;;;;;;11.15;1.90;;;16.70;86.10;;;;;;5067079;28;20037;-66
2022/06/10 05:01:26;;;;;;;6.18;1.90;;;16.70;86.10;;;;;;5053831;28;20040;-66
2022/06/10 05:03:52;;;;;;;4.63;1.48;;;16.70;86.10;;;;;;5061326;28;20066;-66
2022/06/10 05:06:17;;;;;;;12.10;2.03;;;16.70;86.00;;;;;;5073131;28;20037;-67
2022/06/10 05:08:43;;;;;;;9.60;1.98;;;16.70;86.20;;;;;;5073959;28;20035;-66
2022/06/10 05:11:09;;;;;;;9.38;2.13;;;16.70;86.40;;;;;;5060307;28;20107;-66
2022/06/10 05:13:36;;;;;;;10.27;2.17;;;16.70;86.40;;;;;;5063881;28;20037;-65
2022/06/10 05:16:04;;;;;;;8.55;2.05;;;16.70;86.70;;;;;;5069469;28;20024;-64
2022/06/10 05:18:30;;;;;;;15.15;2.58;;;16.80;87.00;;;;;;5073017;28;20050;-68
2022/06/10 05:20:56;;;;;;;5.50;1.95;;;16.80;87.00;;;;;;5073101;28;20449;-64
2022/06/10 05:23:23;;;;;;;6.68;1.63;;;16.80;86.90;;;;;;5070309;28;20036;-65
2022/06/10 05:25:50;;;;;;;9.13;2.13;;;16.90;87.00;;;;;;5068846;28;20025;-64
2022/06/10 05:28:16;;;;;;;8.77;2.25;;;16.90;87.00;;;;;;5070086;28;20404;-64
2022/06/10 05:30:43;;;;;;;18.73;2.78;;;16.90;87.00;;;;;;5068820;28;20043;-65
2022/06/10 05:33:10;;;;;;;12.25;2.10;;;17.00;87.40;;;;;;5069443;28;20544;-66
2022/06/10 05:35:36;;;;;;;7.63;1.65;;;17.00;87.40;;;;;;5067772;28;20085;-65
2022/06/10 05:38:02;;;;;;;13.77;2.50;;;17.00;87.20;;;;;;5068865;28;20028;-65
2022/06/10 05:40:30;;;;;;;14.07;2.05;;;17.10;87.60;;;;;;5069755;28;20681;-65
2022/06/10 05:42:56;;;;;;;14.80;3.15;;;17.00;87.70;;;;;;5066460;28;20032;-65
2022/06/10 05:45:23;;;;;;;12.90;2.60;;;17.10;87.80;;;;;;5069027;28;20028;-65
2022/06/10 05:47:52;;;;;;;12.88;2.05;;;17.10;88.10;;;;;;5072037;28;20480;-65
2022/06/10 05:50:22;;;;;;;13.88;2.40;;;17.20;88.10;;;;;;5071129;28;20035;-65
2022/06/10 05:52:48;;;;;;;12.25;2.47;;;17.20;88.50;;;;;;5071915;28;20411;-66
2022/06/10 05:55:15;;;;;;;10.07;2.00;;;17.20;88.30;;;;;;5067334;28;20036;-67
2022/06/10 05:57:41;;;;;;;6.82;2.00;;;17.20;88.10;;;;;;5070616;28;20038;-65
2022/06/10 06:00:15;;;;;;;9.65;1.90;;;17.20;88.20;;;;;;5069366;28;20029;-65
2022/06/10 06:02:41;;;;;;;9.63;2.15;;;17.30;88.60;;;;;;5069921;28;20655;-65
2022/06/10 06:05:11;;;;;;;9.43;2.55;;;17.30;88.40;;;;;;5068532;28;20025;-66
2022/06/10 06:07:42;;;;;;;15.98;2.50;;;17.30;88.20;;;;;;5066622;28;20016;-65
2022/06/10 06:10:15;;;;;;;12.05;2.67;;;17.30;88.80;;;;;;5067857;28;20381;-65
2022/06/10 06:12:41;;;;;;;5.30;2.08;;;17.30;88.50;;;;;;5064455;28;20495;-65
2022/06/10 06:15:08;;;;;;;17.25;2.65;;;17.40;88.00;;;;;;5063598;28;20078;-65
2022/06/10 06:17:34;;;;;;;12.50;2.20;;;17.40;88.20;;;;;;5064688;28;20035;-65
2022/06/10 06:20:00;;;;;;;2.40;1.00;;;17.40;88.40;;;;;;5070739;28;20035;-65
2022/06/10 06:22:25;;;;;;;14.38;2.63;;;17.40;88.20;;;;;;5067706;28;20496;-66
2022/06/10 06:24:53;;;;;;;4.38;1.55;;;17.40;88.60;;;;;;5070142;28;20090;-65
2022/06/10 06:27:18;;;;;;;9.45;1.88;;;17.40;88.30;;;;;;5068819;28;20487;-65
2022/06/10 06:29:45;;;;;;;13.55;1.73;;;17.40;88.70;;;;;;5067608;28;20040;-65
2022/06/10 06:32:11;;;;;;;1.88;0.80;;;17.40;88.70;;;;;;5062107;28;20046;-65
2022/06/10 06:34:38;;;;;;;4.57;1.10;;;17.50;89.10;;;;;;5068880;28;20127;-66
2022/06/10 06:37:04;;;;;;;3.25;1.23;;;17.40;89.50;;;;;;5069563;28;20059;-66
2022/06/10 06:39:29;;;;;;;3.97;1.08;;;17.40;89.70;;;;;;5068665;28;20035;-65
2022/06/10 06:41:56;;;;;;;1.83;0.98;;;17.40;90.10;;;;;;5068608;28;20021;-65
2022/06/10 06:44:31;;;;;;;10.82;1.75;;;17.30;90.30;;;;;;5062295;28;20104;-65
2022/06/10 06:46:57;;;;;;;1.17;0.88;;;17.30;90.50;;;;;;5065164;28;20464;-65
2022/06/10 06:49:25;;;;;;;2.47;1.38;;;17.30;90.60;;;;;;5068467;28;20035;-66
2022/06/10 06:51:52;;;;;;;10.68;2.33;;;17.40;90.70;;;;;;5069698;28;20464;-65
2022/06/10 06:54:19;;;;;;;3.80;1.40;;;17.40;90.90;;;;;;5067631;28;20503;-65
2022/06/10 06:56:48;;;;;;;9.27;1.70;;;17.30;90.90;;;;;;5071355;28;20064;-65
2022/06/10 06:59:14;;;;;;;3.83;1.48;;;17.40;91.20;;;;;;5071271;28;20523;-65
2022/06/10 07:01:40;;;;;;;4.18;1.15;;;17.40;91.20;;;;;;5066280;28;20056;-65
2022/06/10 07:04:06;;;;;;;5.32;1.80;;;17.40;91.70;;;;;;5070448;28;20117;-65
2022/06/10 07:06:33;;;;;;;3.97;1.60;;;17.40;91.60;;;;;;5070321;28;20373;-66
2022/06/10 07:08:59;;;;;;;6.35;2.03;;;17.50;91.70;;;;;;5065518;28;20073;-65
2022/06/10 07:11:25;;;;;;;6.63;2.28;;;17.50;91.80;;;;;;5066042;28;20028;-65
2022/06/10 07:13:50;;;;;;;6.57;2.42;;;17.50;92.00;;;;;;5070173;28;20166;-65
2022/06/10 07:16:22;;;;;;;1.45;1.25;;;17.60;92.00;;;;;;5054678;28;20033;-65
2022/06/10 07:18:47;;;;;;;3.33;1.48;;;17.50;92.10;;;;;;5071373;28;20036;-65
2022/06/10 07:21:13;;;;;;;2.60;0.98;;;17.60;92.20;;;;;;5057660;28;20103;-65
2022/06/10 07:23:39;;;;;;;0.82;0.82;;;17.60;92.30;;;;;;5071154;28;20490;-65
2022/06/10 07:26:05;;;;;;;5.75;2.78;;;17.60;92.40;;;;;;5070640;28;20056;-65
2022/06/10 07:28:31;;;;;;;14.25;3.28;;;17.60;92.60;;;;;;5059239;28;20400;-66
2022/06/10 07:30:57;;;;;;;4.18;1.13;;;17.60;92.60;;;;;;5058451;28;20021;-65
2022/06/10 07:33:23;;;;;;;7.07;1.88;;;17.70;92.40;;;;;;5071125;28;20028;-65
2022/06/10 07:35:49;;;;;;;5.90;1.80;;;17.70;92.60;;;;;;5056998;28;20033;-65
2022/06/10 07:38:15;;;;;;;10.60;1.83;;;17.80;92.70;;;;;;5059673;28;20033;-65
2022/06/10 07:43:28;;;;;;;9.52;2.08;;;17.90;93.00;;;;;;5058389;28;20499;-65
2022/06/10 07:45:54;;;;;;;1.65;1.05;;;17.90;93.10;;;;;;5067599;28;20421;-65
2022/06/10 07:48:21;;;;;;;8.52;2.78;;;17.90;93.10;;;;;;5059102;28;20036;-65
2022/06/10 07:50:48;;;;;;;7.75;2.30;;;17.90;93.30;;;;;;5050035;28;20029;-65
2022/06/10 07:53:15;;;;;;;2.03;1.52;;;18.00;93.30;;;;;;5051860;28;20397;-65
2022/06/10 07:55:41;;;;;;;4.15;1.40;;;18.00;93.40;;;;;;5070127;28;20103;-65
2022/06/10 07:58:08;;;;;;;15.27;2.95;;;18.00;93.40;;;;;;5070888;28;20036;-65
2022/06/10 08:00:34;;;;;;;2.88;1.33;;;18.00;93.60;;;;;;5070204;28;20036;-65
2022/06/10 08:03:01;;;;;;;4.82;1.40;;;18.10;93.50;;;;;;5070621;28;20043;-65
2022/06/10 08:05:27;;;;;;;1.92;1.33;;;18.10;93.50;;;;;;5051647;28;20044;-66
2022/06/10 08:07:53;;;;;;;7.13;1.85;;;18.10;93.50;;;;;;5064117;28;20415;-66
2022/06/10 08:10:31;;;;;;;3.50;1.38;;;18.20;93.50;;;;;;5058570;28;20032;-65
2022/06/10 08:12:57;;;;;;;5.63;1.90;;;18.20;93.50;;;;;;5069321;28;20036;-65
2022/06/10 08:15:23;;;;;;;1.42;1.20;;;18.20;93.60;;;;;;5072028;28;20078;-65
2022/06/10 08:17:50;;;;;;;3.83;1.05;;;18.30;93.70;;;;;;5068789;28;20043;-65
2022/06/10 08:23:12;;;;;;;12.02;1.90;;;18.30;93.70;;;;;;5071084;28;20044;-65
2022/06/10 08:25:38;;;;;;;1.02;0.88;;;18.40;93.70;;;;;;5068033;28;20602;-66
2022/06/10 08:28:04;;;;;;;4.97;1.88;;;18.40;93.70;;;;;;5058835;28;20111;-65
2022/06/10 08:30:29;;;;;;;5.18;2.13;;;18.50;93.80;;;;;;5070456;28;20024;-66
2022/06/10 08:32:55;;;;;;;6.43;1.80;;;18.50;94.20;;;;;;5073336;28;20025;-65
2022/06/10 08:35:21;;;;;;;3.85;1.35;;;18.50;93.90;;;;;;5073250;28;20033;-66
2022/06/10 08:37:46;;;;;;;8.40;2.60;;;18.50;93.80;;;;;;5063938;28;20518;-65
2022/06/10 08:40:28;;;;;;;3.63;1.77;;;18.60;93.90;;;;;;5058614;28;20084;-65
2022/06/10 08:43:00;;;;;;;4.32;2.13;;;18.60;93.90;;;;;;5063242;28;20068;-66
2022/06/10 08:45:52;;;;;;;4.38;2.03;;;18.60;93.90;;;;;;5066214;28;20032;-66
2022/06/10 08:48:37;;;;;;;3.38;1.70;;;18.60;93.90;;;;;;5051403;28;20032;-67
2022/06/10 08:51:20;;;;;;;4.18;1.38;;;18.70;94.00;;;;;;5067808;28;20109;-65
2022/06/10 08:53:52;;;;;;;5.70;2.28;;;18.70;94.00;;;;;;5069646;28;20369;-65
2022/06/10 08:56:26;;;;;;;8.65;1.98;;;18.70;94.00;;;;;;5072021;28;20044;-65
2022/06/10 08:59:11;;;;;;;3.95;2.60;;;18.80;94.10;;;;;;5070777;28;20028;-65
2022/06/10 09:01:56;;;;;;;2.75;1.50;;;18.80;94.10;;;;;;5061542;28;20056;-65
2022/06/10 09:04:41;;;;;;;2.50;1.45;;;18.80;94.10;;;;;;5070720;28;20028;-65
2022/06/10 09:07:13;;;;;;;19.63;2.33;;;18.80;94.00;;;;;;5070295;28;20024;-65
2022/06/10 09:09:41;;;;;;;5.05;1.58;;;18.80;94.10;;;;;;5070787;28;20067;-65
2022/06/10 09:12:11;;;;;;;2.17;1.02;;;18.90;94.10;;;;;;5067244;28;20422;-65
2022/06/10 09:14:37;;;;;;;4.38;2.17;;;18.90;94.10;;;;;;5063665;28;20033;-65
2022/06/10 09:17:23;;;;;;;2.97;1.92;;;19.00;94.30;;;;;;5071932;28;20021;-65
2022/06/10 09:20:09;;;;;;;4.47;1.83;;;19.00;94.20;;;;;;5071693;28;20381;-66
2022/06/10 09:22:46;;;;;;;3.47;2.35;;;19.00;94.20;;;;;;5057202;28;20051;-65
2022/06/10 09:25:52;;;;;;;10.43;2.47;;;19.00;94.20;;;;;;5071607;28;20040;-66
2022/06/10 09:28:18;;;;;;;1.00;0.90;;;19.10;94.20;;;;;;5067795;28;20089;-66
2022/06/10 09:30:50;;;;;;;6.10;2.03;;;19.20;94.20;;;;;;5069012;28;20029;-67
2022/06/10 09:33:29;;;;;;;6.78;2.55;;;19.20;94.30;;;;;;5066087;28;20102;-67
2022/06/10 09:36:12;;;;;;;6.95;2.55;;;19.20;94.30;;;;;;5070310;28;20051;-66
2022/06/10 09:38:56;;;;;;;;;;;19.20;94.40;;;;;;5069058;28;20036;-66
2022/06/10 09:42:17;;;;;;;8.85;1.95;;;19.20;94.30;;;;;;5065247;28;19915;-65
2022/06/10 09:45:15;;;;;;;2.72;2.10;;;19.20;94.40;;;;;;5068089;28;20483;-65
2022/06/10 09:48:07;;;;;;;9.68;3.40;;;19.20;94.40;;;;;;5070414;28;20050;-66
2022/06/10 09:50:45;;;;;;;9.25;2.88;;;19.20;94.50;;;;;;5066122;28;20032;-65
2022/06/10 09:53:16;;;;;;;3.70;1.75;;;19.20;94.50;;;;;;5073149;28;20476;-65
2022/06/10 09:56:05;;;;;;;16.90;2.67;;;19.30;94.50;;;;;;5072524;28;20067;-65
2022/06/10 09:59:12;;;;;;;4.45;1.52;;;19.30;94.50;;;;;;5058626;28;20111;-66
2022/06/10 10:01:44;;;;;;;14.05;3.35;;;19.40;94.50;;;;;;5062403;28;20048;-66
2022/06/10 10:04:48;;;;;;;8.63;2.95;;;19.40;94.50;;;;;;5072375;28;20044;-65
2022/06/10 10:07:32;;;;;;;4.00;1.27;;;19.50;94.50;;;;;;5072772;28;20460;-65
2022/06/10 10:10:22;;;;;;;6.88;2.70;;;19.50;94.50;;;;;;5072044;28;20131;-65
2022/06/10 10:13:07;;;;;;;5.75;2.45;;;19.50;94.40;;;;;;5058892;28;20032;-65
2022/06/10 10:15:35;;;;;;;1.88;1.40;;;19.60;94.30;;;;;;5062644;28;20086;-66
2022/06/10 10:18:33;;;;;;;9.60;3.08;;;19.70;94.30;;;;;;5064057;28;20020;-66
2022/06/10 10:21:11;;;;;;;4.93;2.47;;;19.70;94.30;;;;;;5056585;28;20039;-64
2022/06/10 10:23:39;;;;;;;11.80;3.03;;;19.70;94.30;;;;;;5072280;28;20415;-65
2022/06/10 10:26:13;;;;;;;10.00;3.25;;;19.70;94.20;;;;;;5070563;28;20427;-65
2022/06/10 10:28:42;;;;;;;7.47;2.15;;;19.70;94.20;;;;;;5068670;28;20032;-65
2022/06/10 10:31:26;;;;;;;7.68;2.50;;;19.80;94.10;;;;;;5067622;28;20033;-65
2022/06/10 10:33:53;;;;;;;3.22;1.70;;;19.90;94.10;;;;;;5069425;28;20035;-65
2022/06/10 10:36:44;;;;;;;6.78;2.78;;;19.90;94.10;;;;;;5062592;28;20029;-65
2022/06/10 10:39:23;;;;;;;10.52;4.07;;;19.90;94.10;;;;;;5071097;28;20429;-65
2022/06/10 10:41:49;;;;;;;4.85;2.17;;;19.90;94.10;;;;;;5064511;28;20388;-65
2022/06/10 10:44:36;;;;;;;2.60;1.27;;;20.00;94.00;;;;;;5057470;28;20044;-65
2022/06/10 10:47:11;;;;;;;5.78;1.63;;;20.00;94.00;;;;;;5065875;28;20028;-65
2022/06/10 10:49:42;;;;;;;6.60;2.90;;;20.00;94.00;;;;;;5072228;28;20032;-65
2022/06/10 10:52:13;;;;;;;5.80;2.90;;;20.00;94.00;;;;;;5069005;28;20021;-65
2022/06/10 10:54:42;;;;;;;15.82;3.88;;;20.00;94.00;;;;;;5071853;28;20033;-65
2022/06/10 10:57:33;;;;;;;12.77;4.63;;;20.00;94.10;;;;;;5058955;28;20025;-66
2022/06/10 11:00:19;;;;;;;5.40;2.22;;;20.10;94.20;;;;;;5070945;28;20384;-66
2022/06/10 11:02:49;;;;;;;8.93;2.55;;;20.10;94.10;;;;;;5063760;28;20056;-66
2022/06/10 11:05:21;;;;;;;5.60;1.85;;;20.10;94.10;;;;;;5069366;28;20063;-66
2022/06/10 11:08:04;;;;;;;4.30;1.83;;;20.10;94.10;;;;;;5067315;28;20024;-66
2022/06/10 11:10:30;;;;;;;3.60;1.77;;;20.20;94.10;;;;;;5068417;28;20056;-65
2022/06/10 11:13:02;;;;;;;3.92;1.63;;;20.20;94.10;;;;;;5060563;28;20044;-65
2022/06/10 11:15:30;;;;;;;5.93;2.70;;;20.20;94.10;;;;;;5069731;28;20040;-64
2022/06/10 11:17:58;;;;;;;8.20;1.83;;;20.30;94.10;;;;;;5066337;28;20021;-64
2022/06/10 11:20:38;;;;;;;3.47;2.08;;;20.30;94.10;;;;;;5069725;28;20484;-65
2022/06/10 11:23:32;;;;;;;9.35;3.22;;;20.30;94.00;;;;;;5064932;28;20045;-67
2022/06/10 11:26:10;;;;;;;3.60;2.38;;;20.40;94.00;;;;;;5064266;28;20464;-65
2022/06/10 11:28:39;;;;;;;5.53;2.08;;;20.40;94.00;;;;;;5056573;28;20037;-65
2022/06/10 11:31:21;;;;;;;6.93;2.58;;;20.40;94.00;;;;;;5064629;28;20032;-65
2022/06/10 11:33:50;;;;;;;6.45;3.40;;;20.40;94.00;;;;;;5070743;28;20418;-65
2022/06/10 11:36:27;;;;;;;3.53;1.92;;;20.50;94.00;;;;;;5070501;28;20078;-64
2022/06/10 11:39:25;;;;;;;16.25;3.75;;;20.50;93.90;;;;;;5068220;28;20488;-64
2022/06/10 11:42:07;;;;;;;6.78;3.33;;;20.50;94.00;;;;;;5067488;28;20039;-64
2022/06/10 11:44:43;;;;;;;9.23;2.45;;;20.60;94.30;;;;;;5067671;28;20037;-64
2022/06/10 11:47:19;;;;;;;7.15;1.92;;;20.60;94.10;;;;;;5065168;28;20032;-64
2022/06/10 11:50:06;;;;;;;4.13;2.13;;;20.60;94.10;;;;;;5069920;28;20357;-64
2022/06/10 11:52:35;;;;;;;6.97;2.17;;;20.70;94.10;;;;;;5070885;28;20097;-64
2022/06/10 11:55:10;;;;;;;4.97;2.42;;;20.70;94.10;;;;;;5067273;28;20434;-64
2022/06/10 12:00:44;;;;;;;9.30;1.50;;;20.90;94.10;;;;;;5059469;28;20451;-64
2022/06/10 12:03:09;;;;;;;4.90;1.85;;;20.90;94.00;;;;;;5067240;28;20101;-65
2022/06/10 12:05:57;;;;;;;3.80;1.85;;;20.90;94.00;;;;;;5069264;28;20028;-65
2022/06/10 12:09:00;;;;;;;6.18;1.48;;;21.00;94.10;;;;;;5073176;28;20393;-65
2022/06/10 12:11:30;;;;;;;13.38;2.33;;;21.10;94.00;;;;;;5069258;28;20089;-65
2022/06/10 12:14:05;;;;;;;7.25;1.90;;;21.10;94.00;;;;;;5070823;28;20107;-64
2022/06/10 12:16:31;;;;;;;4.25;2.22;;;21.20;94.00;;;;;;5074528;28;20039;-65
2022/06/10 12:19:00;;;;;;;7.30;1.88;;;21.20;93.90;;;;;;5065275;28;20085;-64
2022/06/10 12:21:28;;;;;;;10.43;3.58;;;21.20;93.80;;;;;;5059901;28;20040;-64
2022/06/10 12:23:54;;;;;;;3.97;1.80;;;21.30;93.90;;;;;;5072540;28;20037;-65
2022/06/10 12:26:49;;;;;;;3.95;2.28;;;21.30;93.80;;;;;;5075078;28;20021;-65
2022/06/10 12:29:39;;;;;;;7.13;2.42;;;21.30;93.80;;;;;;5062015;28;20051;-64
2022/06/10 12:32:38;;;;;;;7.38;2.45;;;21.40;93.90;;;;;;5062919;28;20039;-64
2022/06/10 12:35:34;;;;;;;5.57;2.03;;;21.40;93.90;;;;;;5074090;28;20530;-69
2022/06/10 12:38:15;;;;;;;13.57;3.63;;;21.40;93.90;;;;;;5064561;28;20495;-65
2022/06/10 12:40:47;;;;;;;7.20;2.95;;;21.50;93.90;;;;;;5067543;28;20040;-65
2022/06/10 12:43:26;;;;;;;8.53;2.80;;;21.60;93.90;;;;;;5061671;28;20045;-66
2022/06/10 12:45:59;;;;;;;5.80;2.55;;;21.60;93.90;;;;;;5069602;28;20033;-64
2022/06/10 12:48:28;;;;;;;8.25;3.33;;;21.70;93.70;;;;;;5071553;28;20062;-65
2022/06/10 12:51:17;;;;;;;9.27;3.28;;;21.70;93.90;;;;;;5068676;28;20078;-64
2022/06/10 12:53:53;;;;;;;5.25;2.40;;;21.80;93.60;;;;;;5064723;28;20030;-64
2022/06/10 12:56:33;;;;;;;12.32;3.00;;;21.80;93.60;;;;;;5068818;28;20483;-65
2022/06/10 12:59:08;;;;;;;9.98;3.00;;;21.80;93.50;;;;;;5066555;28;20119;-65
2022/06/10 13:01:34;;;;;;;9.60;3.20;;;21.90;93.60;;;;;;5064636;28;20374;-64
2022/06/10 13:04:15;;;;;;;9.18;2.88;;;21.90;93.50;;;;;;5067533;28;20041;-65
2022/06/10 13:06:43;;;;;;;5.53;3.17;;;21.90;93.50;;;;;;5066072;28;20035;-64
2022/06/10 13:09:12;;;;;;;9.48;3.20;;;22.00;93.50;;;;;;5066942;28;20107;-65
2022/06/10 13:11:51;;;;;;;8.10;1.90;;;22.00;93.50;;;;;;5070333;28;20040;-64
2022/06/10 13:14:23;;;;;;;10.98;3.00;;;22.00;93.50;;;;;;5065132;28;20036;-64
2022/06/10 13:17:06;;;;;;;7.43;2.70;;;22.00;93.30;;;;;;5063096;28;20031;-65
2022/06/10 13:19:41;;;;;;;6.13;2.78;;;22.10;93.40;;;;;;5059711;28;20029;-65
2022/06/10 13:22:32;;;;;;;8.68;2.63;;;22.10;93.30;;;;;;5066388;28;20051;-65
2022/06/10 13:24:57;;;;;;;10.85;2.78;;;22.10;93.30;;;;;;5063871;28;20045;-65
2022/06/10 13:27:28;;;;;;;10.93;4.00;;;22.10;93.30;;;;;;5066004;28;20028;-65
2022/06/10 13:30:00;;;;;;;4.07;1.70;;;22.10;93.30;;;;;;5065759;28;20029;-65